createdAt,value
2018-06-15T00:01:29.544Z,73.80
2018-06-15T00:04:07.289Z,73.90
2018-06-15T00:06:38.557Z,74.40
2018-06-15T00:09:08.697Z,75.00
2018-06-15T00:11:36.733Z,74.90
2018-06-15T00:14:08.042Z,75.20
2018-06-15T00:16:37.933Z,75.40
2018-06-15T00:19:07.715Z,75.90
2018-06-15T00:21:35.752Z,76.60
2018-06-15T00:24:03.776Z,77.40
2018-06-15T00:26:31.821Z,78.10
2018-06-15T00:29:07.295Z,78.60
2018-06-15T00:31:35.361Z,79.10
2018-06-15T00:34:03.455Z,79.80
2018-06-15T00:36:31.481Z,80.30
2018-06-15T00:38:59.541Z,81.20
2018-06-15T00:41:27.693Z,81.90
2018-06-15T00:43:55.725Z,82.60
2018-06-15T00:46:29.269Z,83.00
2018-06-15T00:49:07.507Z,83.30
2018-06-15T00:51:35.681Z,83.40
2018-06-15T00:54:09.489Z,83.40
2018-06-15T00:56:53.007Z,83.90
2018-06-15T00:59:21.034Z,84.00
2018-06-15T01:01:56.900Z,84.10
2018-06-15T01:04:28.044Z,84.30
2018-06-15T01:06:57.829Z,84.80
2018-06-15T01:09:25.844Z,85.40
2018-06-15T01:11:53.853Z,85.60
2018-06-15T01:14:21.872Z,85.70
2018-06-15T01:16:49.914Z,85.90
2018-06-15T01:19:17.972Z,86.10
2018-06-15T01:21:47.731Z,86.10
2018-06-15T01:24:17.593Z,86.10
2018-06-15T01:26:47.349Z,85.60
2018-06-15T01:29:19.205Z,85.60
2018-06-15T01:31:47.574Z,85.60
2018-06-15T01:34:15.633Z,85.80
2018-06-15T01:36:43.671Z,86.80
2018-06-15T01:39:12.174Z,86.90
2018-06-15T01:41:47.755Z,87.60
2018-06-15T01:44:19.221Z,87.50
2018-06-15T01:46:47.264Z,88.20
2018-06-15T01:49:15.338Z,88.80
2018-06-15T01:51:43.348Z,90.30
2018-06-15T01:54:11.368Z,90.50
2018-06-15T01:56:47.610Z,90.70
2018-06-15T01:59:15.669Z,91.00
2018-06-15T02:01:43.718Z,91.20
2018-06-15T02:04:17.896Z,91.20
2018-06-15T02:06:45.949Z,91.50
2018-06-15T02:09:13.983Z,91.20
2018-06-15T02:11:42.041Z,90.70
2018-06-15T02:14:10.074Z,90.40
2018-06-15T02:16:47.737Z,90.40
2018-06-15T02:19:19.017Z,90.20
2018-06-15T02:21:47.922Z,90.30
2018-06-15T02:24:17.741Z,90.30
2018-06-15T02:26:45.781Z,90.30
2018-06-15T02:29:17.350Z,90.60
2018-06-15T02:31:49.305Z,90.50
2018-06-15T02:34:27.617Z,90.60
2018-06-15T02:36:55.765Z,90.30
2018-06-15T02:39:27.500Z,90.10
2018-06-15T02:41:59.255Z,90.10
2018-06-15T02:44:37.568Z,90.00
2018-06-15T02:47:05.657Z,90.10
2018-06-15T02:49:33.637Z,90.00
2018-06-15T02:52:07.859Z,90.00
2018-06-15T02:54:35.885Z,90.10
2018-06-15T02:57:07.986Z,90.10
2018-06-15T02:59:37.810Z,90.30
2018-06-15T03:02:07.567Z,90.10
2018-06-15T03:04:35.693Z,90.10
2018-06-15T03:07:09.669Z,90.10
2018-06-15T03:09:48.098Z,90.00
2018-06-15T03:12:16.161Z,90.00
2018-06-15T03:14:44.230Z,90.00
2018-06-15T03:17:12.294Z,89.90
2018-06-15T03:19:40.337Z,90.20
2018-06-15T03:22:18.764Z,90.10
2018-06-15T03:24:46.876Z,90.00
2018-06-15T03:27:18.686Z,90.00
2018-06-15T03:29:47.608Z,90.00
2018-06-15T03:32:15.695Z,89.70
2018-06-15T03:34:43.745Z,89.70
2018-06-15T03:37:11.814Z,89.40
2018-06-15T03:39:47.766Z,89.20
2018-06-15T03:42:15.834Z,88.80
2018-06-15T03:44:43.933Z,88.80
2018-06-15T03:47:17.714Z,88.20
2018-06-15T03:49:45.833Z,88.90
2018-06-15T03:52:13.916Z,88.20
2018-06-15T03:54:42.021Z,88.10
2018-06-15T03:57:17.347Z,87.50
2018-06-15T03:59:45.412Z,87.60
2018-06-15T04:02:13.563Z,87.60
2018-06-15T04:04:47.665Z,87.20
2018-06-15T04:07:15.740Z,86.80
2018-06-15T04:09:43.969Z,86.00
2018-06-15T04:12:18.432Z,85.70
2018-06-15T04:14:46.914Z,86.00
2018-06-15T04:17:14.985Z,85.50
2018-06-15T04:19:43.105Z,84.50
2018-06-15T04:22:17.358Z,84.30
2018-06-15T04:24:48.317Z,84.60
2018-06-15T04:27:18.262Z,83.70
2018-06-15T04:29:47.969Z,82.30
2018-06-15T04:32:16.130Z,80.80
2018-06-15T04:37:17.816Z,79.70
2018-06-15T04:39:45.889Z,78.70
2018-06-15T04:42:14.037Z,78.80
2018-06-15T04:44:42.210Z,77.90
2018-06-15T04:47:10.395Z,75.70
2018-06-15T04:49:48.398Z,76.70
2018-06-15T04:52:16.506Z,74.20
2018-06-15T04:54:48.303Z,74.80
2018-06-15T04:57:16.544Z,73.70
2018-06-15T04:59:48.970Z,72.70
2018-06-15T05:02:17.033Z,73.00
2018-06-15T05:04:45.405Z,73.70
2018-06-15T05:07:13.568Z,74.30
2018-06-15T05:09:41.646Z,75.00
2018-06-15T05:12:09.808Z,74.40
2018-06-15T05:14:37.909Z,75.40
2018-06-15T05:17:06.032Z,73.50
2018-06-15T05:19:37.641Z,72.70
2018-06-15T05:22:05.869Z,72.10
2018-06-15T05:24:33.961Z,71.80
2018-06-15T05:27:08.573Z,72.50
2018-06-15T05:29:36.642Z,72.50
2018-06-15T05:32:08.308Z,74.50
2018-06-15T05:34:36.382Z,74.80
2018-06-15T05:37:08.106Z,75.60
2018-06-15T05:39:38.004Z,75.80
2018-06-15T05:42:06.433Z,76.30
2018-06-15T05:44:38.305Z,77.40
2018-06-15T05:47:06.448Z,76.70
2018-06-15T05:49:34.540Z,77.30
2018-06-15T05:52:02.973Z,77.40
2018-06-15T05:56:58.945Z,77.50
2018-06-15T05:59:27.049Z,78.90
2018-06-15T06:01:55.157Z,78.80
2018-06-15T06:06:57.141Z,79.00
2018-06-15T06:09:25.242Z,78.50
2018-06-15T06:11:53.345Z,78.10
2018-06-15T06:14:21.405Z,78.60
2018-06-15T06:16:58.053Z,76.80
2018-06-15T06:19:26.115Z,77.20
2018-06-15T06:21:54.194Z,76.00
2018-06-15T06:24:22.311Z,74.10
2018-06-15T06:26:57.766Z,74.20
2018-06-15T06:29:25.837Z,75.20
2018-06-15T06:31:59.828Z,74.00
2018-06-15T06:34:37.478Z,73.80
2018-06-15T06:37:05.614Z,72.70
2018-06-15T06:39:33.958Z,70.40
2018-06-15T06:42:02.088Z,68.60
2018-06-15T06:44:30.193Z,67.60
2018-06-15T06:46:58.324Z,66.90
2018-06-15T06:49:26.422Z,66.60
2018-06-15T06:51:58.416Z,66.10
2018-06-15T06:54:28.165Z,65.00
2018-06-15T06:56:56.394Z,66.10
2018-06-15T06:59:24.507Z,67.90
2018-06-15T07:01:52.631Z,68.70
2018-06-15T07:04:20.824Z,68.40
2018-06-15T07:06:48.926Z,68.10
2018-06-15T07:09:17.042Z,69.00
2018-06-15T07:11:48.284Z,66.70
2018-06-15T07:14:18.345Z,67.60
2018-06-15T07:16:48.057Z,66.80
2018-06-15T07:19:16.111Z,65.50
2018-06-15T07:21:44.297Z,65.00
2018-06-15T07:24:12.429Z,64.60
2018-06-15T07:26:40.517Z,64.70
2018-06-15T07:29:18.959Z,63.40
2018-06-15T07:31:47.146Z,62.20
2018-06-15T07:34:15.293Z,63.00
2018-06-15T07:36:43.366Z,63.50
2018-06-15T07:39:17.528Z,64.60
2018-06-15T07:41:45.606Z,66.50
2018-06-15T07:44:13.692Z,67.90
2018-06-15T07:46:47.888Z,67.50
2018-06-15T07:49:15.988Z,68.10
2018-06-15T07:51:44.087Z,68.00
2018-06-15T07:54:18.208Z,68.40
2018-06-15T07:56:46.318Z,68.00
2018-06-15T07:59:18.335Z,68.50
2018-06-15T08:01:46.537Z,68.10
2018-06-15T08:04:20.274Z,64.40
2018-06-15T08:06:58.179Z,63.30
2018-06-15T08:09:29.353Z,59.20
2018-06-15T08:11:57.781Z,57.00
2018-06-15T08:14:26.010Z,53.20
2018-06-15T08:16:54.148Z,51.90
2018-06-15T08:19:27.861Z,50.50
2018-06-15T08:21:59.044Z,48.00
2018-06-15T08:24:27.192Z,43.70
2018-06-15T08:26:58.848Z,42.30
2018-06-15T08:29:28.296Z,44.10
2018-06-15T08:31:56.608Z,44.00
2018-06-15T08:34:24.818Z,44.60
2018-06-15T08:36:53.075Z,42.60
2018-06-15T08:39:22.001Z,41.20
2018-06-15T08:41:50.134Z,42.20
2018-06-15T08:44:27.975Z,42.50
2018-06-15T08:46:56.226Z,42.90
2018-06-15T08:49:24.378Z,44.50
2018-06-15T08:51:52.637Z,46.20
2018-06-15T08:54:27.094Z,44.60
2018-06-15T08:56:55.469Z,43.00
2018-06-15T08:59:23.618Z,42.20
2018-06-15T09:01:51.952Z,42.80
2018-06-15T09:04:27.054Z,44.40
2018-06-15T09:06:59.236Z,43.80
2018-06-15T09:09:27.444Z,45.50
2018-06-15T09:11:55.638Z,44.60
2018-06-15T09:14:23.864Z,45.30
2018-06-15T09:16:57.597Z,46.20
2018-06-15T09:19:26.506Z,44.70
2018-06-15T09:21:54.707Z,44.50
2018-06-15T09:24:22.986Z,44.20
2018-06-15T09:26:51.238Z,45.40
2018-06-15T09:31:57.295Z,45.50
2018-06-15T09:34:25.466Z,45.80
2018-06-15T09:36:59.950Z,45.60
2018-06-15T09:39:37.589Z,45.40
2018-06-15T09:42:10.248Z,44.50
2018-06-15T09:44:48.431Z,41.80
2018-06-15T09:47:17.740Z,41.10
2018-06-15T09:49:46.183Z,41.40
2018-06-15T09:52:19.820Z,35.60
2018-06-15T09:54:48.183Z,36.30
2018-06-15T09:57:16.407Z,33.40
2018-06-15T09:59:47.704Z,34.90
2018-06-15T10:02:16.029Z,34.30
2018-06-15T10:04:49.679Z,36.30
2018-06-15T10:09:47.586Z,36.80
2018-06-15T10:12:15.717Z,38.20
2018-06-15T10:14:44.753Z,37.60
2018-06-15T10:17:12.880Z,40.30
2018-06-15T10:19:41.027Z,41.40
2018-06-15T10:22:17.209Z,44.10
2018-06-15T10:24:45.362Z,44.40
2018-06-15T10:27:19.582Z,46.50
2018-06-15T10:29:47.666Z,45.80
2018-06-15T10:32:18.828Z,44.90
2018-06-15T10:34:46.926Z,43.10
2018-06-15T10:37:15.049Z,41.70
2018-06-15T10:39:43.171Z,40.70
2018-06-15T10:42:17.354Z,40.80
2018-06-15T10:44:45.553Z,41.70
2018-06-15T10:47:13.836Z,44.00
2018-06-15T10:49:42.068Z,46.90
2018-06-15T10:52:10.828Z,49.20
2018-06-15T10:54:47.439Z,48.80
2018-06-15T10:57:18.853Z,50.20
2018-06-15T10:59:46.958Z,48.90
2018-06-15T11:02:15.107Z,47.20
2018-06-15T11:04:43.278Z,42.10
2018-06-15T11:07:17.242Z,35.80
2018-06-15T11:09:45.409Z,33.60
2018-06-15T11:12:13.508Z,30.60
2018-06-15T11:14:47.561Z,34.00
2018-06-15T11:17:15.726Z,32.50
2018-06-15T11:19:43.933Z,33.50
2018-06-15T11:22:17.613Z,35.90
2018-06-15T11:24:45.835Z,36.50
2018-06-15T11:27:17.808Z,34.50
2018-06-15T11:29:47.742Z,30.70
2018-06-15T11:32:16.239Z,29.50
2018-06-15T11:34:44.480Z,30.30
2018-06-15T11:37:19.045Z,33.30
2018-06-15T11:39:47.334Z,34.30
2018-06-15T11:42:19.538Z,34.50
2018-06-15T11:47:16.501Z,34.50
2018-06-15T11:52:12.665Z,35.50
2018-06-15T11:54:47.748Z,32.70
2018-06-15T11:57:15.994Z,32.10
2018-06-15T11:59:44.327Z,31.00
2018-06-15T12:02:17.891Z,30.00
2018-06-15T12:04:46.254Z,30.60
2018-06-15T12:07:14.478Z,31.30
2018-06-15T12:09:48.995Z,31.50
2018-06-15T12:12:17.234Z,34.90
2018-06-15T12:14:45.568Z,35.80
2018-06-15T12:17:19.318Z,35.80
2018-06-15T12:19:47.748Z,37.90
2018-06-15T12:22:15.917Z,38.60
2018-06-15T12:24:44.132Z,37.30
2018-06-15T12:27:18.515Z,38.30
2018-06-15T12:32:18.230Z,39.50
2018-06-15T12:34:46.360Z,37.50
2018-06-15T12:37:14.667Z,36.50
2018-06-15T12:39:43.117Z,33.70
2018-06-15T12:42:17.772Z,29.40
2018-06-15T12:44:45.964Z,28.50
2018-06-15T12:47:14.292Z,32.90
2018-06-15T12:49:48.037Z,29.30
2018-06-15T12:52:16.353Z,26.30
2018-06-15T12:54:48.109Z,26.10
2018-06-15T12:57:17.833Z,27.00
2018-06-15T12:59:46.076Z,27.70
2018-06-15T13:02:14.313Z,30.10
2018-06-15T13:04:42.583Z,31.20
2018-06-15T13:07:17.643Z,33.10
2018-06-15T13:09:47.697Z,36.10
2018-06-15T13:12:19.395Z,37.60
2018-06-15T13:14:57.624Z,38.80
2018-06-15T13:17:25.788Z,39.10
2018-06-15T13:19:54.131Z,38.10
2018-06-15T13:22:28.167Z,37.50
2018-06-15T13:24:58.225Z,38.00
2018-06-15T13:27:26.466Z,34.10
2018-06-15T13:29:54.868Z,30.00
2018-06-15T13:32:29.137Z,28.10
2018-06-15T13:34:58.149Z,29.40
2018-06-15T13:37:26.454Z,32.00
2018-06-15T13:39:58.633Z,32.80
2018-06-15T13:42:28.444Z,32.90
2018-06-15T13:44:57.306Z,34.10
2018-06-15T13:47:25.791Z,32.50
2018-06-15T13:49:53.921Z,27.00
2018-06-15T13:52:22.138Z,26.40
2018-06-15T13:54:50.409Z,27.60
2018-06-15T13:57:26.954Z,30.20
2018-06-15T13:59:55.115Z,32.30
2018-06-15T14:02:29.340Z,34.80
2018-06-15T14:04:57.570Z,36.20
2018-06-15T14:07:25.966Z,37.70
2018-06-15T14:09:54.496Z,37.50
2018-06-15T14:12:22.848Z,38.60
2018-06-15T14:14:57.677Z,39.50
2018-06-15T14:17:25.798Z,39.80
2018-06-15T14:19:54.077Z,41.30
2018-06-15T14:22:22.440Z,41.10
2018-06-15T14:24:50.731Z,42.40
2018-06-15T14:27:27.138Z,42.40
2018-06-15T14:29:59.573Z,43.30
2018-06-15T14:32:37.431Z,43.00
2018-06-15T14:35:05.613Z,42.10
2018-06-15T14:37:33.830Z,42.40
2018-06-15T14:40:08.186Z,43.90
2018-06-15T14:42:36.338Z,42.70
2018-06-15T14:45:04.541Z,43.20
2018-06-15T14:47:39.426Z,42.30
2018-06-15T14:50:07.762Z,43.00
2018-06-15T14:52:35.906Z,42.00
2018-06-15T14:57:39.471Z,42.70
2018-06-15T15:00:07.563Z,42.90
2018-06-15T15:02:35.861Z,42.50
2018-06-15T15:05:04.036Z,42.30
2018-06-15T15:07:32.306Z,42.30
2018-06-15T15:10:06.967Z,44.70
2018-06-15T15:12:35.173Z,45.10
2018-06-15T15:15:03.360Z,42.10
2018-06-15T15:17:37.174Z,41.40
2018-06-15T15:20:08.528Z,41.50
2018-06-15T15:22:38.193Z,42.00
2018-06-15T15:25:08.023Z,41.70
2018-06-15T15:27:36.242Z,41.70
2018-06-15T15:30:08.003Z,40.50
2018-06-15T15:32:36.169Z,39.50
2018-06-15T15:35:04.623Z,38.30
2018-06-15T15:37:39.113Z,37.10
2018-06-15T15:40:07.590Z,36.70
2018-06-15T15:42:38.976Z,35.90
2018-06-15T15:45:07.045Z,35.50
2018-06-15T15:47:35.160Z,35.40
2018-06-15T15:50:03.610Z,34.90
2018-06-15T15:52:31.845Z,33.90
2018-06-15T15:57:28.070Z,33.40
2018-06-15T15:59:57.801Z,35.00
2018-06-15T16:02:27.647Z,34.90
2018-06-15T16:04:55.714Z,34.30
2018-06-15T16:07:29.907Z,34.90
2018-06-15T16:10:08.354Z,36.10
2018-06-15T16:12:37.738Z,37.70
2018-06-15T16:15:07.729Z,37.60
2018-06-15T16:17:35.819Z,38.70
2018-06-15T16:20:09.702Z,39.70
2018-06-15T16:22:37.747Z,40.80
2018-06-15T16:25:05.832Z,39.20
2018-06-15T16:27:39.794Z,40.80
2018-06-15T16:30:17.394Z,39.40
2018-06-15T16:32:45.485Z,41.80
2018-06-15T16:35:13.576Z,39.80
2018-06-15T16:37:47.388Z,40.50
2018-06-15T16:40:18.840Z,41.60
2018-06-15T16:42:47.031Z,40.00
2018-06-15T16:45:18.953Z,40.70
2018-06-15T16:47:47.877Z,39.30
2018-06-15T16:50:19.482Z,40.00
2018-06-15T16:52:57.629Z,40.20
2018-06-15T16:55:25.840Z,42.40
2018-06-15T16:57:54.000Z,42.40
2018-06-15T17:00:27.576Z,42.30
2018-06-15T17:03:00.981Z,42.20
2018-06-15T17:05:29.166Z,41.40
2018-06-15T17:10:34.901Z,42.00
2018-06-15T17:13:03.158Z,41.40
2018-06-15T17:15:37.298Z,42.50
2018-06-15T17:20:59.115Z,41.10
2018-06-15T17:23:27.331Z,42.60
2018-06-15T17:25:55.560Z,43.70
2018-06-15T17:28:23.886Z,44.10
2018-06-15T17:30:58.552Z,44.00
2018-06-15T17:36:19.168Z,44.10
2018-06-15T17:38:47.318Z,44.00
2018-06-15T17:41:15.638Z,42.40
2018-06-15T17:43:49.487Z,42.70
2018-06-15T17:46:17.627Z,44.10
2018-06-15T17:48:45.917Z,46.30
2018-06-15T17:51:14.110Z,48.50
2018-06-15T17:53:48.803Z,50.20
2018-06-15T17:56:16.885Z,50.50
2018-06-15T17:58:45.062Z,50.00
2018-06-15T18:01:18.745Z,52.70
2018-06-15T18:03:46.794Z,55.70
2018-06-15T18:06:14.889Z,55.20
2018-06-15T18:08:42.973Z,49.90
2018-06-15T18:11:11.127Z,52.40
2018-06-15T18:13:39.199Z,54.40
2018-06-15T18:16:07.282Z,54.20
2018-06-15T18:18:35.350Z,54.50
2018-06-15T18:21:09.281Z,55.80
2018-06-15T18:23:37.354Z,55.00
2018-06-15T18:26:09.089Z,53.90
2018-06-15T18:28:41.018Z,52.80
2018-06-15T18:33:46.735Z,51.70
2018-06-15T18:36:14.803Z,53.80
2018-06-15T18:38:43.350Z,54.20
2018-06-15T18:41:11.428Z,53.50
2018-06-15T18:43:49.700Z,54.10
2018-06-15T18:46:17.763Z,53.80
2018-06-15T18:48:49.130Z,54.00
2018-06-15T18:51:17.222Z,54.20
2018-06-15T18:53:51.266Z,54.50
2018-06-15T18:56:19.366Z,55.20
2018-06-15T18:58:50.430Z,56.20
2018-06-15T19:01:18.493Z,56.20
2018-06-15T19:03:46.560Z,56.70
2018-06-15T19:06:14.617Z,56.60
2018-06-15T19:08:48.690Z,57.20
2018-06-15T19:11:19.914Z,57.50
2018-06-15T19:13:47.981Z,58.90
2018-06-15T19:16:16.031Z,60.70
2018-06-15T19:18:50.319Z,63.20
2018-06-15T19:21:18.369Z,65.00
2018-06-15T19:23:46.424Z,66.40
2018-06-15T19:26:14.486Z,67.60
2018-06-15T19:28:49.404Z,71.40
2018-06-15T19:31:17.632Z,76.10
2018-06-15T19:33:45.669Z,76.40
2018-06-15T19:36:19.967Z,77.90
2018-06-15T19:38:48.100Z,80.60
2018-06-15T19:41:16.208Z,82.50
2018-06-15T19:43:50.009Z,81.80
2018-06-15T19:46:19.208Z,82.90
2018-06-15T19:48:50.906Z,83.60
2018-06-15T19:51:19.811Z,82.90
2018-06-15T19:53:47.916Z,81.60
2018-06-15T19:56:19.600Z,81.20
2018-06-15T19:58:49.609Z,80.40
2018-06-15T20:01:19.365Z,79.40
2018-06-15T20:03:47.458Z,80.70
2018-06-15T20:06:15.541Z,81.50
2018-06-15T20:08:43.609Z,81.00
2018-06-15T20:11:11.664Z,80.30
2018-06-15T20:13:50.059Z,80.00
2018-06-15T20:16:18.109Z,79.20
2018-06-15T20:18:46.156Z,79.10
2018-06-15T20:21:20.157Z,80.00
2018-06-15T20:23:48.185Z,79.30
2018-06-15T20:26:19.257Z,80.00
2018-06-15T20:28:49.110Z,81.70
2018-06-15T20:31:17.225Z,83.70
2018-06-15T20:33:51.288Z,84.60
2018-06-15T20:36:29.000Z,84.10
2018-06-15T20:38:57.054Z,83.30
2018-06-15T20:41:25.121Z,82.80
2018-06-15T20:43:53.587Z,81.80
2018-06-15T20:46:22.029Z,81.40
2018-06-15T20:48:50.074Z,81.30
2018-06-15T20:53:45.990Z,80.90
2018-06-15T20:56:14.062Z,80.50
2018-06-15T20:58:42.648Z,80.20
2018-06-15T21:01:19.039Z,80.10
2018-06-15T21:03:47.079Z,79.80
2018-06-15T21:06:15.208Z,80.40
2018-06-15T21:08:43.253Z,79.80
2018-06-15T21:11:11.334Z,80.30
2018-06-15T21:13:49.022Z,80.00
2018-06-15T21:16:17.083Z,80.10
2018-06-15T21:18:49.025Z,79.80
2018-06-15T21:21:20.938Z,79.90
2018-06-15T21:23:58.540Z,79.60
2018-06-15T21:26:26.600Z,81.00
2018-06-15T21:28:54.653Z,80.70
2018-06-15T21:31:28.892Z,82.50
2018-06-15T21:33:56.984Z,83.20
2018-06-15T21:36:30.912Z,82.90
2018-06-15T21:38:58.984Z,82.80
2018-06-15T21:41:30.105Z,83.40
2018-06-15T21:43:59.172Z,83.00
2018-06-15T21:46:29.009Z,83.10
2018-06-15T21:48:57.058Z,83.20
2018-06-15T21:51:31.347Z,83.10
2018-06-15T21:54:09.043Z,83.20
2018-06-15T21:56:37.129Z,82.80
2018-06-15T21:59:05.181Z,82.40
2018-06-15T22:01:33.396Z,82.20
2018-06-15T22:04:01.485Z,82.10
2018-06-15T22:06:29.565Z,82.00
2018-06-15T22:08:57.605Z,81.60
2018-06-15T22:13:53.542Z,81.50
2018-06-15T22:16:21.643Z,81.00
2018-06-15T22:18:49.765Z,81.10
2018-06-15T22:21:19.613Z,81.20
2018-06-15T22:23:47.669Z,80.80
2018-06-15T22:28:50.085Z,79.60
2018-06-15T22:31:18.193Z,80.00
2018-06-15T22:33:46.253Z,80.00
2018-06-15T22:36:14.300Z,80.00
2018-06-15T22:38:42.353Z,79.70
2018-06-15T22:41:19.987Z,79.80
2018-06-15T22:43:48.214Z,82.10
2018-06-15T22:46:19.860Z,82.70
2018-06-15T22:48:47.932Z,83.60
2018-06-15T22:51:15.982Z,83.70
2018-06-15T22:53:50.019Z,83.40
2018-06-15T22:56:18.085Z,83.30
2018-06-15T22:58:50.235Z,84.90
2018-06-15T23:01:19.819Z,84.00
2018-06-15T23:03:49.652Z,83.00
2018-06-15T23:06:19.132Z,82.20
2018-06-15T23:08:47.234Z,82.90
2018-06-15T23:11:21.302Z,82.60
2018-06-15T23:13:58.998Z,82.60
2018-06-15T23:16:27.053Z,81.10
2018-06-15T23:19:01.218Z,78.70
2018-06-15T23:21:38.851Z,77.20
2018-06-15T23:24:06.941Z,76.50
2018-06-15T23:26:35.073Z,76.00
2018-06-15T23:29:03.113Z,76.10
2018-06-15T23:31:38.580Z,76.60
2018-06-15T23:34:06.898Z,77.00
2018-06-15T23:36:41.208Z,77.70
2018-06-15T23:39:19.164Z,78.60
2018-06-15T23:41:47.209Z,79.20
2018-06-15T23:44:20.787Z,80.00
2018-06-15T23:46:48.838Z,80.50
2018-06-15T23:49:16.882Z,80.70
2018-06-15T23:51:44.983Z,81.20
2018-06-15T23:54:13.043Z,81.50
2018-06-15T23:56:49.206Z,81.80
2018-06-15T23:59:17.283Z,82.20
